createdAt,value
2019-01-09T00:01:37.868Z,85.13
2019-01-09T00:06:50.405Z,85.64
2019-01-09T00:12:02.419Z,85.04
2019-01-09T00:17:13.986Z,84.78
2019-01-09T00:22:24.614Z,84.88
2019-01-09T00:27:37.957Z,84.89
2019-01-09T00:32:52.580Z,84.70
2019-01-09T00:38:02.658Z,85.03
2019-01-09T00:43:10.870Z,85.42
2019-01-09T00:48:26.181Z,84.97
2019-01-09T00:53:36.902Z,84.93
2019-01-09T00:58:46.223Z,85.50
2019-01-09T01:04:38.372Z,85.81
2019-01-09T01:10:35.395Z,85.69
2019-01-09T01:16:21.090Z,86.12
2019-01-09T01:21:36.522Z,86.62
2019-01-09T01:27:04.834Z,87.17
2019-01-09T01:32:33.928Z,87.62
2019-01-09T01:37:57.480Z,87.92
2019-01-09T01:43:28.717Z,88.02
2019-01-09T01:49:07.145Z,88.03
2019-01-09T01:54:52.263Z,87.76
2019-01-09T02:00:30.211Z,87.46
2019-01-09T02:05:50.502Z,86.16
2019-01-09T02:11:33.487Z,86.41
2019-01-09T02:16:58.727Z,86.05
2019-01-09T02:22:26.789Z,85.18
2019-01-09T02:28:01.101Z,85.90
2019-01-09T02:33:09.785Z,86.35
2019-01-09T02:38:19.703Z,86.35
2019-01-09T02:43:28.226Z,86.21
2019-01-09T02:48:40.776Z,86.78
2019-01-09T02:53:49.698Z,87.33
2019-01-09T02:59:05.922Z,87.51
2019-01-09T03:04:19.371Z,87.80
2019-01-09T03:09:29.255Z,86.20
2019-01-09T03:14:40.992Z,86.54
2019-01-09T03:19:54.437Z,85.03
2019-01-09T03:25:02.003Z,85.55
2019-01-09T03:30:17.705Z,85.91
2019-01-09T03:35:34.514Z,86.14
2019-01-09T03:40:47.909Z,86.33
2019-01-09T03:45:58.595Z,86.83
2019-01-09T03:51:06.983Z,87.23
2019-01-09T03:56:14.945Z,87.27
2019-01-09T04:01:25.642Z,87.45
2019-01-09T04:06:41.828Z,88.05
2019-01-09T04:11:49.666Z,88.16
2019-01-09T04:16:59.525Z,88.58
2019-01-09T04:22:12.011Z,88.81
2019-01-09T04:27:23.876Z,89.26
2019-01-09T04:32:37.412Z,89.42
2019-01-09T04:37:50.081Z,89.41
2019-01-09T04:42:59.934Z,89.96
2019-01-09T04:48:33.901Z,89.78
2019-01-09T04:53:47.462Z,89.71
2019-01-09T04:58:59.128Z,89.60
2019-01-09T05:04:09.900Z,89.77
2019-01-09T05:09:23.453Z,89.37
2019-01-09T05:14:36.493Z,89.42
2019-01-09T05:19:49.370Z,89.33
2019-01-09T05:24:55.684Z,89.55
2019-01-09T05:30:03.322Z,89.16
2019-01-09T05:35:12.705Z,89.63
2019-01-09T05:40:25.442Z,89.17
2019-01-09T05:45:33.597Z,89.09
2019-01-09T05:50:47.161Z,88.95
2019-01-09T05:55:59.812Z,89.27
2019-01-09T06:01:07.853Z,89.13
2019-01-09T06:06:21.476Z,89.01
2019-01-09T06:13:13.199Z,88.72
2019-01-09T06:18:21.700Z,88.54
2019-01-09T06:23:31.067Z,88.42
2019-01-09T06:28:44.651Z,88.56
2019-01-09T06:33:56.963Z,88.86
2019-01-09T06:39:09.892Z,88.96
2019-01-09T06:44:18.307Z,89.04
2019-01-09T06:49:26.982Z,88.66
2019-01-09T06:54:37.738Z,88.50
2019-01-09T06:59:46.862Z,87.67
2019-01-09T07:05:00.294Z,87.17
2019-01-09T07:10:11.462Z,86.18
2019-01-09T07:15:23.101Z,86.05
2019-01-09T07:20:33.733Z,86.40
2019-01-09T07:25:43.516Z,85.07
2019-01-09T07:30:50.852Z,84.90
2019-01-09T07:36:00.643Z,84.81
2019-01-09T07:41:11.557Z,84.95
2019-01-09T07:46:20.460Z,85.43
2019-01-09T07:51:30.310Z,85.29
2019-01-09T07:56:39.213Z,85.33
2019-01-09T08:01:50.021Z,85.69
2019-01-09T08:07:01.676Z,85.34
2019-01-09T08:12:12.945Z,85.76
2019-01-09T08:17:22.728Z,86.38
2019-01-09T08:22:32.074Z,86.56
2019-01-09T08:27:42.826Z,87.14
2019-01-09T08:32:50.262Z,87.18
2019-01-09T08:38:02.947Z,87.46
2019-01-09T08:43:12.612Z,87.78
2019-01-09T08:48:20.044Z,87.69
2019-01-09T08:53:33.608Z,87.86
2019-01-09T08:58:46.946Z,87.85
2019-01-09T09:03:56.912Z,87.29
2019-01-09T09:09:08.068Z,86.77
2019-01-09T09:14:17.024Z,86.25
2019-01-09T09:19:27.188Z,86.16
2019-01-09T09:24:36.976Z,83.74
2019-01-09T09:29:47.808Z,83.66
2019-01-09T09:34:52.815Z,84.83
2019-01-09T09:40:00.281Z,82.77
2019-01-09T09:45:11.779Z,81.22
2019-01-09T09:50:25.317Z,79.05
2019-01-09T09:55:34.163Z,76.31
2019-01-09T10:00:42.584Z,75.24
2019-01-09T10:05:50.974Z,71.64
2019-01-09T10:11:05.185Z,70.61
2019-01-09T10:16:19.618Z,66.63
2019-01-09T10:21:28.451Z,66.98
2019-01-09T10:26:39.019Z,65.68
2019-01-09T10:31:50.259Z,57.89
2019-01-09T10:37:00.906Z,59.18
2019-01-09T10:42:08.693Z,59.34
2019-01-09T10:47:18.502Z,58.29
2019-01-09T10:52:27.311Z,58.10
2019-01-09T10:57:37.971Z,57.02
2019-01-09T11:02:45.288Z,55.17
2019-01-09T11:07:53.206Z,54.01
2019-01-09T11:13:04.770Z,55.46
2019-01-09T11:18:13.586Z,57.53
2019-01-09T11:23:22.987Z,57.54
2019-01-09T11:28:34.567Z,56.48
2019-01-09T11:33:46.303Z,56.08
2019-01-09T11:38:59.729Z,57.99
2019-01-09T11:44:11.281Z,60.62
2019-01-09T11:49:20.143Z,61.91
2019-01-09T11:54:28.715Z,63.83
2019-01-09T11:59:43.974Z,59.20
2019-01-09T12:04:54.794Z,56.81
2019-01-09T12:10:03.417Z,60.13
2019-01-09T12:15:14.072Z,65.80
2019-01-09T12:20:21.673Z,69.24
2019-01-09T12:25:36.064Z,68.86
2019-01-09T12:30:42.899Z,59.80
2019-01-09T12:35:52.111Z,54.97
2019-01-09T12:41:03.861Z,51.74
2019-01-09T12:46:12.772Z,50.40
2019-01-09T12:51:19.778Z,49.93
2019-01-09T12:56:26.932Z,50.08
2019-01-09T13:01:34.628Z,47.13
2019-01-09T13:06:40.717Z,45.63
2019-01-09T13:11:52.418Z,48.65
2019-01-09T13:17:11.840Z,44.91
2019-01-09T13:22:14.359Z,50.32
2019-01-09T13:27:26.376Z,51.35
2019-01-09T13:32:34.112Z,50.89
2019-01-09T13:37:46.019Z,51.12
2019-01-09T13:42:55.901Z,53.63
2019-01-09T13:48:04.356Z,53.82
2019-01-09T13:53:12.867Z,55.30
2019-01-09T13:58:21.289Z,53.67
2019-01-09T14:03:28.755Z,49.88
2019-01-09T14:08:35.309Z,52.13
2019-01-09T14:13:45.388Z,54.43
2019-01-09T14:18:56.405Z,56.08
2019-01-09T14:24:10.429Z,56.49
2019-01-09T14:29:20.639Z,58.58
2019-01-09T14:34:31.822Z,58.58
2019-01-09T14:39:48.155Z,57.86
2019-01-09T14:44:55.675Z,57.54
2019-01-09T14:50:12.208Z,58.50
2019-01-09T14:55:21.259Z,59.67
2019-01-09T15:00:32.321Z,59.86
2019-01-09T15:05:44.898Z,61.31
2019-01-09T15:10:55.071Z,62.76
2019-01-09T15:16:05.318Z,61.88
2019-01-09T15:21:14.094Z,62.50
2019-01-09T15:26:26.756Z,62.45
2019-01-09T15:31:34.429Z,62.93
2019-01-09T15:36:45.351Z,63.74
2019-01-09T15:41:54.027Z,63.81
2019-01-09T15:47:02.348Z,64.30
2019-01-09T15:52:12.005Z,64.40
2019-01-09T15:57:20.785Z,65.17
2019-01-09T16:02:27.842Z,65.32
2019-01-09T16:07:41.806Z,65.82
2019-01-09T16:12:52.073Z,68.23
2019-01-09T16:17:57.364Z,66.68
2019-01-09T16:23:12.119Z,66.80
2019-01-09T16:28:24.611Z,67.19
2019-01-09T16:33:37.098Z,67.01
2019-01-09T16:38:50.022Z,67.60
2019-01-09T16:44:02.346Z,67.15
2019-01-09T16:49:13.551Z,67.22
2019-01-09T16:54:25.710Z,67.98
2019-01-09T16:59:33.264Z,67.74
2019-01-09T17:04:41.221Z,67.80
2019-01-09T17:09:48.408Z,68.45
2019-01-09T17:14:57.089Z,68.89
2019-01-09T17:20:05.588Z,68.96
2019-01-09T17:25:13.740Z,69.08
2019-01-09T17:30:33.043Z,69.44
2019-01-09T17:35:48.527Z,69.49
2019-01-09T17:41:04.424Z,70.57
2019-01-09T17:46:11.492Z,70.57
2019-01-09T17:51:20.194Z,70.75
2019-01-09T17:56:27.353Z,71.07
2019-01-09T18:01:40.340Z,71.43
2019-01-09T18:06:49.958Z,71.68
2019-01-09T18:11:59.140Z,72.21
2019-01-09T18:17:09.247Z,72.49
2019-01-09T18:22:20.276Z,72.91
2019-01-09T18:27:28.126Z,73.35
2019-01-09T18:32:50.371Z,73.35
2019-01-09T18:38:29.101Z,73.47
2019-01-09T18:43:47.350Z,73.41
2019-01-09T18:49:32.866Z,73.61
2019-01-09T18:54:38.384Z,73.46
2019-01-09T18:59:51.078Z,73.94
2019-01-09T19:05:00.155Z,73.55
2019-01-09T19:10:10.626Z,73.98
2019-01-09T19:15:19.467Z,73.90
2019-01-09T19:20:27.942Z,74.24
2019-01-09T19:25:37.717Z,74.33
2019-01-09T19:30:48.420Z,74.43
2019-01-09T19:35:59.973Z,74.74
2019-01-09T19:41:16.688Z,75.03
2019-01-09T19:46:17.753Z,74.89
2019-01-09T19:51:29.724Z,75.40
2019-01-09T19:56:36.192Z,75.37
2019-01-09T20:01:42.160Z,75.74
2019-01-09T20:06:49.427Z,76.03
2019-01-09T20:11:59.384Z,76.67
2019-01-09T20:17:13.670Z,76.67
2019-01-09T20:22:20.999Z,76.99
2019-01-09T20:27:30.688Z,77.07
2019-01-09T20:32:37.803Z,77.20
2019-01-09T20:37:48.241Z,77.49
2019-01-09T20:43:19.058Z,77.55
2019-01-09T20:48:29.739Z,77.64
2019-01-09T20:53:40.576Z,77.65
2019-01-09T20:58:49.493Z,77.66
2019-01-09T21:03:59.193Z,77.87
2019-01-09T21:09:11.638Z,77.87
2019-01-09T21:14:20.022Z,77.97
2019-01-09T21:19:29.768Z,77.75
2019-01-09T21:24:38.659Z,78.05
2019-01-09T21:29:47.957Z,78.05
2019-01-09T21:34:58.050Z,78.40
2019-01-09T21:40:06.582Z,78.55
2019-01-09T21:45:15.858Z,78.74
2019-01-09T21:50:22.814Z,78.94
2019-01-09T21:55:30.078Z,78.70
2019-01-09T22:00:46.094Z,78.63
2019-01-09T22:05:57.612Z,78.50
2019-01-09T22:11:07.330Z,78.51
2019-01-09T22:16:22.051Z,78.52
2019-01-09T22:21:31.713Z,78.73
2019-01-09T22:26:42.877Z,78.89
2019-01-09T22:31:53.028Z,79.00
2019-01-09T22:37:02.369Z,79.08
2019-01-09T22:42:12.054Z,79.22
2019-01-09T22:47:22.051Z,79.92
2019-01-09T22:52:29.763Z,79.95
2019-01-09T22:57:39.531Z,80.11
2019-01-09T23:02:52.068Z,80.00
2019-01-09T23:08:07.342Z,80.72
2019-01-09T23:13:14.789Z,80.71
2019-01-09T23:18:22.488Z,81.00
2019-01-09T23:23:30.473Z,81.25
2019-01-09T23:28:41.955Z,81.34
2019-01-09T23:33:49.923Z,81.43
2019-01-09T23:38:56.870Z,81.48
2019-01-09T23:44:07.553Z,81.58
2019-01-09T23:49:18.626Z,81.60
2019-01-09T23:54:29.325Z,81.93
2019-01-09T23:59:37.252Z,81.69
